createdAt,value
2018-02-25T00:02:01.984Z,0.90
2018-02-25T00:07:05.853Z,0.70
2018-02-25T00:09:36.552Z,0.80
2018-02-25T00:12:06.407Z,0.80
2018-02-25T00:14:36.045Z,0.70
2018-02-25T00:17:07.547Z,0.70
2018-02-25T00:19:38.054Z,0.70
2018-02-25T00:22:16.726Z,0.70
2018-02-25T00:24:46.984Z,0.70
2018-02-25T00:27:16.681Z,0.70
2018-02-25T00:29:46.537Z,0.70
2018-02-25T00:32:16.970Z,0.60
2018-02-25T00:34:47.206Z,0.60
2018-02-25T00:37:18.062Z,0.50
2018-02-25T00:39:47.715Z,0.50
2018-02-25T00:42:20.450Z,0.50
2018-02-25T00:44:50.375Z,0.50
2018-02-25T00:47:20.359Z,0.50
2018-02-25T00:49:49.895Z,0.50
2018-02-25T00:52:26.604Z,0.50
2018-02-25T00:54:56.111Z,0.50
2018-02-25T00:57:25.885Z,0.40
2018-02-25T00:59:56.715Z,0.40
2018-02-25T01:02:26.398Z,0.50
2018-02-25T01:04:55.978Z,0.40
2018-02-25T01:07:28.392Z,0.30
2018-02-25T01:09:58.039Z,0.30
2018-02-25T01:12:31.148Z,0.30
2018-02-25T01:15:01.730Z,0.30
2018-02-25T01:17:32.612Z,0.30
2018-02-25T01:20:02.043Z,0.20
2018-02-25T01:22:39.815Z,0.20
2018-02-25T01:25:10.159Z,0.20
2018-02-25T01:27:39.920Z,0.20
2018-02-25T01:30:10.947Z,0.20
2018-02-25T01:32:40.483Z,0.20
2018-02-25T01:35:10.952Z,0.10
2018-02-25T01:37:40.900Z,0.10
2018-02-25T01:40:10.524Z,0.20
2018-02-25T01:42:43.855Z,0.00
2018-02-25T01:45:13.853Z,0.10
2018-02-25T01:47:47.083Z,0.00
2018-02-25T01:50:16.737Z,-0.10
2018-02-25T01:52:48.312Z,0.00
2018-02-25T01:55:18.297Z,-0.10
2018-02-25T01:57:49.976Z,-0.10
2018-02-25T02:00:21.207Z,-0.10
2018-02-25T02:02:52.861Z,-0.20
2018-02-25T02:05:22.548Z,-0.20
2018-02-25T02:14:40.222Z,-0.30
2018-02-25T02:17:10.033Z,-0.30
2018-02-25T02:19:39.901Z,-0.30
2018-02-25T02:22:10.033Z,-0.30
2018-02-25T02:24:39.962Z,-0.20
2018-02-25T02:27:09.935Z,-0.20
2018-02-25T02:29:40.144Z,-0.30
2018-02-25T02:32:10.112Z,-0.30
2018-02-25T02:34:40.106Z,-0.30
2018-02-25T02:37:10.451Z,-0.30
2018-02-25T02:39:40.251Z,-0.40
2018-02-25T02:42:12.176Z,-0.30
2018-02-25T02:44:46.019Z,-0.30
2018-02-25T02:47:15.765Z,-0.40
2018-02-25T02:49:45.619Z,-0.30
2018-02-25T02:52:17.000Z,-0.40
2018-02-25T02:54:46.744Z,-0.40
2018-02-25T02:57:19.344Z,-0.40
2018-02-25T02:59:49.561Z,-0.40
2018-02-25T03:02:20.940Z,-0.60
2018-02-25T03:04:52.010Z,-0.60
2018-02-25T03:07:23.409Z,-0.50
2018-02-25T03:09:53.310Z,-0.50
2018-02-25T03:12:25.293Z,-0.60
2018-02-25T03:14:55.875Z,-0.60
2018-02-25T03:17:27.066Z,-0.60
2018-02-25T03:19:57.100Z,-0.60
2018-02-25T03:22:30.100Z,-0.70
2018-02-25T03:25:00.152Z,-0.60
2018-02-25T03:27:31.758Z,-0.60
2018-02-25T03:30:01.757Z,-0.60
2018-02-25T03:32:32.965Z,-0.60
2018-02-25T03:35:04.163Z,-0.60
2018-02-25T03:37:35.056Z,-0.60
2018-02-25T03:40:05.058Z,-0.60
2018-02-25T03:42:38.779Z,-0.80
2018-02-25T03:45:08.810Z,-0.80
2018-02-25T03:47:39.341Z,-0.80
2018-02-25T03:50:09.873Z,-0.80
2018-02-25T03:52:41.668Z,-0.70
2018-02-25T03:55:11.544Z,-0.80
2018-02-25T03:57:43.715Z,-0.90
2018-02-25T04:00:13.575Z,-0.90
2018-02-25T04:02:46.214Z,-0.90
2018-02-25T04:05:17.253Z,-0.90
2018-02-25T04:07:49.133Z,-0.90
2018-02-25T04:10:19.113Z,-0.90
2018-02-25T04:12:51.212Z,-1.00
2018-02-25T04:15:21.005Z,-0.90
2018-02-25T04:17:53.962Z,-0.90
2018-02-25T04:20:24.472Z,-0.90
2018-02-25T04:22:56.831Z,-1.00
2018-02-25T04:25:26.971Z,-1.00
2018-02-25T04:27:58.934Z,-1.10
2018-02-25T04:30:29.174Z,-1.10
2018-02-25T04:33:01.107Z,-1.20
2018-02-25T04:35:32.208Z,-1.10
2018-02-25T04:38:02.422Z,-1.20
2018-02-25T04:40:32.594Z,-1.10
2018-02-25T04:43:06.169Z,-1.20
2018-02-25T04:45:36.862Z,-1.10
2018-02-25T04:48:08.034Z,-1.10
2018-02-25T04:50:38.141Z,-1.10
2018-02-25T04:53:09.710Z,-1.10
2018-02-25T04:55:39.693Z,-1.10
2018-02-25T04:58:13.269Z,-1.10
2018-02-25T05:00:43.255Z,-1.10
2018-02-25T05:03:15.259Z,-1.10
2018-02-25T05:05:45.607Z,-1.10
2018-02-25T05:08:16.890Z,-1.10
2018-02-25T05:10:46.602Z,-1.20
2018-02-25T05:13:19.148Z,-1.20
2018-02-25T05:15:49.015Z,-1.20
2018-02-25T05:18:21.443Z,-1.20
2018-02-25T05:20:51.468Z,-1.20
2018-02-25T05:23:25.169Z,-1.30
2018-02-25T05:25:55.447Z,-1.30
2018-02-25T05:28:27.053Z,-1.30
2018-02-25T05:31:01.319Z,-1.20
2018-02-25T05:33:31.395Z,-1.30
2018-02-25T05:36:01.458Z,-1.30
2018-02-25T05:38:31.529Z,-1.30
2018-02-25T05:41:02.601Z,-1.40
2018-02-25T05:43:32.433Z,-1.50
2018-02-25T05:46:02.183Z,-1.50
2018-02-25T05:48:33.391Z,-1.50
2018-02-25T05:51:03.528Z,-1.50
2018-02-25T05:53:36.423Z,-1.40
2018-02-25T05:56:08.185Z,-1.50
2018-02-25T05:58:39.398Z,-1.60
2018-02-25T06:01:09.858Z,-1.60
2018-02-25T06:03:41.138Z,-1.70
2018-02-25T06:06:11.310Z,-1.70
2018-02-25T06:08:42.679Z,-1.70
2018-02-25T06:11:13.685Z,-1.70
2018-02-25T06:13:44.951Z,-1.70
2018-02-25T06:16:16.061Z,-1.70
2018-02-25T06:18:46.367Z,-1.70
2018-02-25T06:21:16.922Z,-1.80
2018-02-25T06:23:48.817Z,-1.80
2018-02-25T06:26:18.878Z,-1.70
2018-02-25T06:28:52.328Z,-1.70
2018-02-25T06:31:23.116Z,-1.70
2018-02-25T06:33:54.681Z,-1.70
2018-02-25T06:36:24.783Z,-1.60
2018-02-25T06:38:56.833Z,-1.70
2018-02-25T06:41:26.900Z,-1.70
2018-02-25T06:44:00.847Z,-1.60
2018-02-25T06:46:30.877Z,-1.60
2018-02-25T06:49:01.318Z,-1.50
2018-02-25T06:51:31.309Z,-1.60
2018-02-25T06:54:04.629Z,-1.60
2018-02-25T06:56:35.961Z,-1.60
2018-02-25T06:59:06.378Z,-1.60
2018-02-25T07:01:36.480Z,-1.60
2018-02-25T07:04:09.196Z,-1.70
2018-02-25T07:06:39.207Z,-1.70
2018-02-25T07:09:13.075Z,-1.80
2018-02-25T07:11:48.242Z,-1.80
2018-02-25T07:14:18.355Z,-1.90
2018-02-25T07:16:49.178Z,-1.90
2018-02-25T07:19:19.096Z,-1.90
2018-02-25T07:21:49.000Z,-1.90
2018-02-25T07:24:19.063Z,-1.80
2018-02-25T07:26:48.831Z,-1.80
2018-02-25T07:29:19.034Z,-1.60
2018-02-25T07:31:50.020Z,-1.60
2018-02-25T07:34:21.108Z,-1.60
2018-02-25T07:36:51.697Z,-1.50
2018-02-25T07:39:25.233Z,-1.50
2018-02-25T07:41:55.778Z,-1.60
2018-02-25T07:44:26.348Z,-1.60
2018-02-25T07:46:57.123Z,-1.60
2018-02-25T07:49:28.608Z,-1.50
2018-02-25T07:51:58.576Z,-1.50
2018-02-25T07:54:30.292Z,-1.50
2018-02-25T07:56:59.917Z,-1.50
2018-02-25T07:59:32.570Z,-1.50
2018-02-25T08:02:02.209Z,-1.40
2018-02-25T08:04:33.656Z,-1.40
2018-02-25T08:07:03.357Z,-1.30
2018-02-25T08:09:36.411Z,-1.20
2018-02-25T08:12:06.300Z,-1.30
2018-02-25T08:14:38.096Z,-1.30
2018-02-25T08:17:07.722Z,-1.30
2018-02-25T08:19:39.611Z,-1.30
2018-02-25T08:22:09.180Z,-1.30
2018-02-25T08:24:46.195Z,-1.30
2018-02-25T08:27:16.813Z,-1.20
2018-02-25T08:29:46.510Z,-1.20
2018-02-25T08:32:16.018Z,-1.20
2018-02-25T08:34:47.202Z,-1.00
2018-02-25T08:37:17.481Z,-1.20
2018-02-25T08:39:48.625Z,-1.20
2018-02-25T08:42:18.481Z,-1.10
2018-02-25T08:44:51.724Z,-1.10
2018-02-25T08:47:21.172Z,-1.00
2018-02-25T08:49:53.081Z,-0.80
2018-02-25T08:52:22.562Z,-0.90
2018-02-25T08:54:55.902Z,-0.70
2018-02-25T08:57:25.783Z,-0.70
2018-02-25T08:59:59.152Z,-0.60
2018-02-25T09:02:28.698Z,-0.60
2018-02-25T09:05:01.510Z,-0.70
2018-02-25T09:07:31.021Z,-0.80
2018-02-25T09:10:03.321Z,-0.70
2018-02-25T09:12:32.903Z,-0.70
2018-02-25T09:15:06.004Z,-0.60
2018-02-25T09:17:35.887Z,-0.60
2018-02-25T09:20:08.831Z,-0.40
2018-02-25T09:22:38.383Z,-0.20
2018-02-25T09:25:11.550Z,0.10
2018-02-25T09:27:41.224Z,0.30
2018-02-25T09:30:14.488Z,0.70
2018-02-25T09:32:45.030Z,1.60
2018-02-25T09:35:16.113Z,1.60
2018-02-25T09:37:45.500Z,2.00
2018-02-25T09:40:17.889Z,2.60
2018-02-25T09:42:47.316Z,3.20
2018-02-25T09:45:19.373Z,3.70
2018-02-25T09:47:49.897Z,4.40
2018-02-25T09:50:23.082Z,4.30
2018-02-25T09:52:52.429Z,4.90
2018-02-25T09:55:24.115Z,5.10
2018-02-25T09:57:53.649Z,5.20
2018-02-25T10:00:26.468Z,5.30
2018-02-25T10:02:56.286Z,5.50
2018-02-25T10:05:29.018Z,5.70
2018-02-25T10:07:58.540Z,5.90
2018-02-25T10:10:31.279Z,6.20
2018-02-25T10:13:00.674Z,6.20
2018-02-25T10:15:33.222Z,6.30
2018-02-25T10:18:03.046Z,6.50
2018-02-25T10:20:35.455Z,6.60
2018-02-25T10:23:04.919Z,6.70
2018-02-25T10:25:38.016Z,6.60
2018-02-25T10:28:07.479Z,6.80
2018-02-25T10:30:39.420Z,6.70
2018-02-25T10:35:50.876Z,6.60
2018-02-25T10:38:20.466Z,6.70
2018-02-25T10:40:50.151Z,6.60
2018-02-25T10:43:20.692Z,6.30
2018-02-25T10:45:50.059Z,6.30
2018-02-25T10:48:20.560Z,5.50
2018-02-25T10:50:49.966Z,5.50
2018-02-25T10:53:19.457Z,5.40
2018-02-25T10:55:49.797Z,5.20
2018-02-25T10:58:19.371Z,5.00
2018-02-25T11:00:56.250Z,4.80
2018-02-25T11:03:27.064Z,4.60
2018-02-25T11:05:57.475Z,4.40
2018-02-25T11:08:26.961Z,4.40
2018-02-25T11:10:57.907Z,4.40
2018-02-25T11:13:27.366Z,4.30
2018-02-25T11:15:59.939Z,4.10
2018-02-25T11:18:29.613Z,4.10
2018-02-25T11:21:03.503Z,4.10
2018-02-25T11:23:32.974Z,4.10
2018-02-25T11:26:04.037Z,4.20
2018-02-25T11:28:33.499Z,4.30
2018-02-25T11:31:06.965Z,4.30
2018-02-25T11:33:36.426Z,4.50
2018-02-25T11:36:13.665Z,4.50
2018-02-25T11:38:43.441Z,4.70
2018-02-25T11:41:13.505Z,4.80
2018-02-25T11:43:42.925Z,4.80
2018-02-25T11:46:13.898Z,4.90
2018-02-25T11:48:43.270Z,4.90
2018-02-25T11:51:20.578Z,5.10
2018-02-25T11:53:50.208Z,5.00
2018-02-25T11:56:20.379Z,5.30
2018-02-25T11:58:49.955Z,5.20
2018-02-25T12:01:20.413Z,5.40
2018-02-25T12:03:49.923Z,5.30
2018-02-25T12:06:24.084Z,5.60
2018-02-25T12:08:54.626Z,5.90
2018-02-25T12:11:24.840Z,5.80
2018-02-25T12:13:54.295Z,6.00
2018-02-25T12:16:27.960Z,6.00
2018-02-25T12:18:57.437Z,6.00
2018-02-25T12:21:29.972Z,5.80
2018-02-25T12:24:02.383Z,5.80
2018-02-25T12:26:32.536Z,5.70
2018-02-25T12:29:02.087Z,5.70
2018-02-25T12:31:33.283Z,5.90
2018-02-25T12:34:02.733Z,5.80
2018-02-25T12:36:35.529Z,5.60
2018-02-25T12:39:05.612Z,5.50
2018-02-25T12:41:37.533Z,5.40
2018-02-25T12:44:06.894Z,5.50
2018-02-25T12:46:41.577Z,5.50
2018-02-25T12:49:11.040Z,5.40
2018-02-25T12:51:42.677Z,5.50
2018-02-25T12:54:13.088Z,5.50
2018-02-25T12:56:46.078Z,5.50
2018-02-25T12:59:15.510Z,5.60
2018-02-25T13:01:47.778Z,5.60
2018-02-25T13:04:17.217Z,5.60
2018-02-25T13:06:50.080Z,5.60
2018-02-25T13:09:20.939Z,5.60
2018-02-25T13:11:51.808Z,5.50
2018-02-25T13:14:21.191Z,5.30
2018-02-25T13:16:55.609Z,5.30
2018-02-25T13:19:24.969Z,5.30
2018-02-25T13:21:56.870Z,5.20
2018-02-25T13:24:27.359Z,5.20
2018-02-25T13:27:00.753Z,5.30
2018-02-25T13:29:30.236Z,5.30
2018-02-25T13:32:01.460Z,5.40
2018-02-25T13:34:30.826Z,5.50
2018-02-25T13:37:03.746Z,5.60
2018-02-25T13:39:33.377Z,5.60
2018-02-25T13:42:10.513Z,5.80
2018-02-25T13:44:39.976Z,5.90
2018-02-25T13:47:10.180Z,6.30
2018-02-25T13:49:40.318Z,6.30
2018-02-25T13:52:17.895Z,6.50
2018-02-25T13:54:48.019Z,6.40
2018-02-25T13:57:17.519Z,6.40
2018-02-25T13:59:47.427Z,6.40
2018-02-25T14:02:17.517Z,6.40
2018-02-25T14:04:47.111Z,6.50
2018-02-25T14:07:20.230Z,6.50
2018-02-25T14:09:49.754Z,6.50
2018-02-25T14:12:20.486Z,6.50
2018-02-25T14:14:50.232Z,6.40
2018-02-25T14:17:23.665Z,6.20
2018-02-25T14:19:53.367Z,6.10
2018-02-25T14:22:26.631Z,6.10
2018-02-25T14:24:56.074Z,6.30
2018-02-25T14:27:27.472Z,6.30
2018-02-25T14:29:58.070Z,6.40
2018-02-25T14:32:29.011Z,6.40
2018-02-25T14:34:58.455Z,6.40
2018-02-25T14:37:31.426Z,6.30
2018-02-25T14:40:00.971Z,6.30
2018-02-25T14:42:33.819Z,6.30
2018-02-25T14:45:03.473Z,6.00
2018-02-25T14:47:36.349Z,6.10
2018-02-25T14:50:05.783Z,5.90
2018-02-25T14:52:38.026Z,5.80
2018-02-25T14:55:07.512Z,5.90
2018-02-25T14:57:40.420Z,5.90
2018-02-25T15:00:10.173Z,5.70
2018-02-25T15:02:43.966Z,5.70
2018-02-25T15:05:14.163Z,5.60
2018-02-25T15:07:44.847Z,5.60
2018-02-25T15:10:14.631Z,5.60
2018-02-25T15:12:47.130Z,5.50
2018-02-25T15:15:16.576Z,5.50
2018-02-25T15:17:49.682Z,5.40
2018-02-25T15:20:19.152Z,5.30
2018-02-25T15:22:52.080Z,5.10
2018-02-25T15:25:23.574Z,4.90
2018-02-25T15:27:54.542Z,4.80
2018-02-25T15:30:24.043Z,4.60
2018-02-25T15:32:57.047Z,4.60
2018-02-25T15:35:26.477Z,4.60
2018-02-25T15:37:59.941Z,4.60
2018-02-25T15:40:29.759Z,4.60
2018-02-25T15:43:02.357Z,4.50
2018-02-25T15:45:32.494Z,4.30
2018-02-25T15:48:05.456Z,4.30
2018-02-25T15:50:35.683Z,4.00
2018-02-25T15:53:07.644Z,3.90
2018-02-25T15:55:38.257Z,3.70
2018-02-25T15:58:09.237Z,3.70
2018-02-25T16:00:38.770Z,3.60
2018-02-25T16:03:12.412Z,3.60
2018-02-25T16:05:42.589Z,3.50
2018-02-25T16:08:15.125Z,3.50
2018-02-25T16:10:44.927Z,3.50
2018-02-25T16:13:15.622Z,3.30
2018-02-25T16:15:45.107Z,3.30
2018-02-25T16:18:18.628Z,3.20
2018-02-25T16:20:47.985Z,3.10
2018-02-25T16:23:21.126Z,3.00
2018-02-25T16:25:50.819Z,3.00
2018-02-25T16:28:23.575Z,3.00
2018-02-25T16:30:53.049Z,2.90
2018-02-25T16:33:23.509Z,2.80
2018-02-25T16:35:52.999Z,2.70
2018-02-25T16:38:31.106Z,2.70
2018-02-25T16:41:00.877Z,2.60
2018-02-25T16:43:30.292Z,2.60
2018-02-25T16:45:59.992Z,2.30
2018-02-25T16:48:30.523Z,2.30
2018-02-25T16:51:00.792Z,2.30
2018-02-25T16:53:32.928Z,2.20
2018-02-25T16:56:02.346Z,2.20
2018-02-25T16:58:34.997Z,2.10
2018-02-25T17:01:04.666Z,2.10
2018-02-25T17:03:38.525Z,2.10
2018-02-25T17:06:08.160Z,2.00
2018-02-25T17:08:41.784Z,2.00
2018-02-25T17:11:12.815Z,1.90
2018-02-25T17:13:43.988Z,1.90
2018-02-25T17:16:14.233Z,1.90
2018-02-25T17:18:46.312Z,1.90
2018-02-25T17:21:16.068Z,1.90
2018-02-25T17:23:49.104Z,1.80
2018-02-25T17:26:18.887Z,1.90
2018-02-25T17:28:51.129Z,1.90
2018-02-25T17:31:20.651Z,1.90
2018-02-25T17:33:54.554Z,1.90
2018-02-25T17:36:24.399Z,1.90
2018-02-25T17:38:56.263Z,1.90
2018-02-25T17:41:26.243Z,2.00
2018-02-25T17:43:58.447Z,1.80
2018-02-25T17:46:28.032Z,1.80
2018-02-25T17:49:01.961Z,1.70
2018-02-25T17:51:31.469Z,1.60
2018-02-25T17:54:03.251Z,1.60
2018-02-25T17:59:07.183Z,1.60
2018-02-25T18:01:37.362Z,1.50
2018-02-25T18:04:10.754Z,1.50
2018-02-25T18:06:40.265Z,1.40
2018-02-25T18:09:11.109Z,1.40
2018-02-25T18:11:41.322Z,1.40
2018-02-25T18:14:14.570Z,1.40
2018-02-25T18:16:45.074Z,1.40
2018-02-25T18:19:16.210Z,1.50
2018-02-25T18:21:46.377Z,1.40
2018-02-25T18:24:19.059Z,1.40
2018-02-25T18:26:49.335Z,1.40
2018-02-25T18:29:20.682Z,1.40
2018-02-25T18:31:50.624Z,1.30
2018-02-25T18:34:21.878Z,1.30
2018-02-25T18:36:52.222Z,1.10
2018-02-25T18:39:24.608Z,1.10
2018-02-25T18:41:54.353Z,1.20
2018-02-25T18:44:27.715Z,1.20
2018-02-25T18:47:00.169Z,1.00
2018-02-25T18:49:29.979Z,1.10
2018-02-25T18:52:00.296Z,1.00
2018-02-25T18:54:30.185Z,1.00
2018-02-25T18:56:59.770Z,0.90
2018-02-25T18:59:32.802Z,0.90
2018-02-25T19:02:03.437Z,0.90
2018-02-25T19:04:32.959Z,0.90
2018-02-25T19:07:02.443Z,0.90
2018-02-25T19:09:36.347Z,0.80
2018-02-25T19:12:06.685Z,0.70
2018-02-25T19:14:39.446Z,0.70
2018-02-25T19:17:10.000Z,0.70
2018-02-25T19:19:39.523Z,0.70
2018-02-25T19:22:09.580Z,0.70
2018-02-25T19:24:43.030Z,0.70
2018-02-25T19:27:12.789Z,0.70
2018-02-25T19:29:45.243Z,0.70
2018-02-25T19:32:14.800Z,0.80
2018-02-25T19:34:48.495Z,0.80
2018-02-25T19:37:24.113Z,0.90
2018-02-25T19:40:01.778Z,0.90
2018-02-25T19:42:31.346Z,0.90
2018-02-25T19:45:01.525Z,0.90
2018-02-25T19:47:31.115Z,0.90
2018-02-25T19:50:00.620Z,0.90
2018-02-25T19:52:30.603Z,1.00
2018-02-25T19:55:00.500Z,1.00
2018-02-25T19:57:30.116Z,1.00
2018-02-25T20:00:00.963Z,1.00
2018-02-25T20:02:30.601Z,1.00
2018-02-25T20:05:01.908Z,1.00
2018-02-25T20:07:31.540Z,1.00
2018-02-25T20:10:10.010Z,1.00
2018-02-25T20:12:39.606Z,1.00
2018-02-25T20:15:11.225Z,1.00
2018-02-25T20:17:41.299Z,1.00
2018-02-25T20:20:10.947Z,0.90
2018-02-25T20:22:40.592Z,0.90
2018-02-25T20:25:12.851Z,0.80
2018-02-25T20:27:42.790Z,0.80
2018-02-25T20:30:15.181Z,0.90
2018-02-25T20:32:44.638Z,0.90
2018-02-25T20:35:21.591Z,0.90
2018-02-25T20:37:51.167Z,0.80
2018-02-25T20:40:20.833Z,0.80
2018-02-25T20:42:50.397Z,0.90
2018-02-25T20:45:20.897Z,0.80
2018-02-25T20:47:51.556Z,0.70
2018-02-25T20:50:24.167Z,0.70
2018-02-25T20:52:54.556Z,0.60
2018-02-25T20:55:25.760Z,0.60
2018-02-25T20:57:56.128Z,0.70
2018-02-25T21:00:27.645Z,0.70
2018-02-25T21:02:57.984Z,0.80
2018-02-25T21:05:28.286Z,0.70
2018-02-25T21:08:01.248Z,0.80
2018-02-25T21:10:32.148Z,0.90
2018-02-25T21:13:02.659Z,0.90
2018-02-25T21:15:32.627Z,0.90
2018-02-25T21:18:02.134Z,0.80
2018-02-25T21:20:36.143Z,0.80
2018-02-25T21:23:06.037Z,0.80
2018-02-25T21:25:36.827Z,0.80
2018-02-25T21:28:06.179Z,0.80
2018-02-25T21:30:39.734Z,0.70
2018-02-25T21:33:09.193Z,0.70
2018-02-25T21:35:42.552Z,0.70
2018-02-25T21:38:12.074Z,0.60
2018-02-25T21:40:45.510Z,0.60
2018-02-25T21:43:15.140Z,0.50
2018-02-25T21:45:47.772Z,0.50
2018-02-25T21:48:18.445Z,0.50
2018-02-25T21:50:48.438Z,0.40
2018-02-25T21:53:17.902Z,0.50
2018-02-25T21:55:55.534Z,0.40
2018-02-25T22:00:31.985Z,0.40
2018-02-25T22:03:08.029Z,0.30
2018-02-25T22:05:38.339Z,0.30
2018-02-25T22:08:08.119Z,0.30
2018-02-25T22:10:38.283Z,0.20
2018-02-25T22:13:08.492Z,0.20
2018-02-25T22:15:38.989Z,0.10
2018-02-25T22:18:08.548Z,0.10
2018-02-25T22:20:38.065Z,0.10
2018-02-25T22:23:08.006Z,0.10
2018-02-25T22:25:37.604Z,0.00
2018-02-25T22:28:07.750Z,-0.10
2018-02-25T22:30:37.698Z,-0.10
2018-02-25T22:33:10.409Z,-0.10
2018-02-25T22:35:40.679Z,-0.10
2018-02-25T22:38:14.350Z,-0.10
2018-02-25T22:40:44.074Z,-0.10
2018-02-25T22:43:15.771Z,-0.20
2018-02-25T22:45:45.914Z,-0.20
2018-02-25T22:48:17.093Z,-0.20
2018-02-25T22:50:46.811Z,-0.30
2018-02-25T22:53:18.948Z,-0.30
2018-02-25T22:55:49.339Z,-0.30
2018-02-25T22:58:20.563Z,-0.30
2018-02-25T23:00:50.700Z,-0.30
2018-02-25T23:03:23.266Z,-0.20
2018-02-25T23:05:52.937Z,-0.20
2018-02-25T23:08:25.343Z,-0.30
2018-02-25T23:10:54.918Z,-0.30
2018-02-25T23:13:26.335Z,-0.40
2018-02-25T23:15:56.402Z,-0.50
2018-02-25T23:18:28.151Z,-0.60
2018-02-25T23:20:57.723Z,-0.60
2018-02-25T23:23:31.379Z,-0.60
2018-02-25T23:26:08.233Z,-0.60
2018-02-25T23:28:37.803Z,-0.60
2018-02-25T23:31:08.125Z,-0.60
2018-02-25T23:33:38.606Z,-0.60
2018-02-25T23:36:09.692Z,-0.70
2018-02-25T23:38:39.984Z,-0.70
2018-02-25T23:41:09.539Z,-0.70
2018-02-25T23:43:40.234Z,-0.70
2018-02-25T23:46:10.672Z,-0.70
2018-02-25T23:48:41.278Z,-0.70
2018-02-25T23:51:10.985Z,-0.70
2018-02-25T23:53:43.960Z,-0.70
2018-02-25T23:56:14.008Z,-0.80
2018-02-25T23:58:47.318Z,-0.70
